Time;durP1;ratioP1;P1;durP2;ratioP2;P2;SDS_P1;SDS_P2;PMS_P1;PMS_P2;Temp;Humidity;BMP_temperature;BMP_pressure;BME280_temperature;BME280_humidity;BME280_pressure;Samples;Min_cycle;Max_cycle;Signal;HPM_P1;HPM_P2
2022/05/17 00:01:57;;;;;;;12.97;7.57;;;;;;;;;;6258069;28;20123;-56
2022/05/17 00:04:58;;;;;;;20.00;7.55;;;;;;;;;;6259552;28;20551;-55
2022/05/17 00:07:59;;;;;;;14.20;6.75;;;;;;;;;;6262009;28;20480;-60
2022/05/17 00:10:59;;;;;;;16.02;7.35;;;;;;;;;;6254875;28;20627;-59
2022/05/17 00:14:00;;;;;;;13.77;7.20;;;;;;;;;;6262254;28;20135;-53
2022/05/17 00:17:01;;;;;;;11.13;6.25;;;;;;;;;;6259337;28;21871;-52
2022/05/17 00:20:03;;;;;;;12.23;6.45;;;;;;;;;;6261882;28;20416;-53
2022/05/17 00:23:03;;;;;;;13.52;6.65;;;;;;;;;;6265066;28;20049;-56
2022/05/17 00:26:06;;;;;;;14.20;6.70;;;;;;;;;;6262316;28;20492;-53
2022/05/17 00:29:07;;;;;;;13.52;6.80;;;;;;;;;;6264503;28;20049;-53
2022/05/17 00:32:08;;;;;;;15.07;7.70;;;;;;;;;;6266504;28;20049;-50
2022/05/17 00:35:09;;;;;;;14.55;7.00;;;;;;;;;;6265651;28;20148;-58
2022/05/17 00:38:10;;;;;;;11.77;6.75;;;;;;;;;;6259544;28;20567;-55
2022/05/17 00:41:11;;;;;;;11.38;6.78;;;;;;;;;;6264712;28;20128;-57
2022/05/17 00:47:37;;;;;;;16.65;6.70;;;;;;;;;;6262020;28;20399;-58
2022/05/17 00:50:47;;;;;;;11.25;6.05;;;;;;;;;;6258614;28;20064;-56
2022/05/17 00:53:48;;;;;;;13.52;6.40;;;;;;;;;;6262356;28;20507;-53
2022/05/17 00:57:04;;;;;;;15.43;6.53;;;;;;;;;;6259340;28;20045;-58
2022/05/17 01:00:12;;;;;;;17.30;6.63;;;;;;;;;;6263388;28;20044;-54
2022/05/17 01:03:16;;;;;;;12.05;5.80;;;;;;;;;;6258133;28;20052;-53
2022/05/17 01:06:18;;;;;;;13.57;7.15;;;;;;;;;;6263215;28;20135;-54
2022/05/17 01:09:21;;;;;;;8.07;5.70;;;;;;;;;;6262807;28;20059;-55
2022/05/17 01:12:22;;;;;;;11.90;6.25;;;;;;;;;;6259545;28;20687;-58
2022/05/17 01:15:22;;;;;;;12.02;5.97;;;;;;;;;;6257665;28;20052;-58
2022/05/17 01:18:24;;;;;;;11.18;6.10;;;;;;;;;;6262654;28;20049;-53
2022/05/17 01:21:25;;;;;;;13.30;6.13;;;;;;;;;;6258429;28;20052;-55
2022/05/17 01:24:25;;;;;;;12.95;5.57;;;;;;;;;;6269084;28;20556;-59
2022/05/17 01:27:53;;;;;;;11.10;5.65;;;;;;;;;;6263757;28;20045;-56
2022/05/17 01:30:56;;;;;;;11.95;5.60;;;;;;;;;;6264016;28;20136;-59
2022/05/17 01:33:56;;;;;;;11.23;5.70;;;;;;;;;;6263796;28;20140;-53
2022/05/17 01:36:57;;;;;;;8.80;5.05;;;;;;;;;;6259502;28;20131;-59
2022/05/17 01:39:58;;;;;;;10.23;5.28;;;;;;;;;;6262447;28;20076;-53
2022/05/17 01:42:59;;;;;;;11.05;5.75;;;;;;;;;;6260621;28;20796;-60
2022/05/17 01:46:08;;;;;;;13.35;5.63;;;;;;;;;;6262271;28;20057;-61
2022/05/17 01:49:09;;;;;;;9.63;5.00;;;;;;;;;;6261674;28;20052;-59
2022/05/17 01:52:10;;;;;;;8.95;4.85;;;;;;;;;;6262249;28;20069;-59
2022/05/17 01:55:11;;;;;;;12.65;4.30;;;;;;;;;;6265856;28;20442;-58
2022/05/17 01:58:12;;;;;;;8.65;4.57;;;;;;;;;;6264085;28;20484;-52
2022/05/17 02:01:12;;;;;;;9.65;4.88;;;;;;;;;;6258435;28;20125;-57
2022/05/17 02:04:13;;;;;;;9.80;4.68;;;;;;;;;;6263417;28;20053;-59
2022/05/17 02:07:14;;;;;;;11.88;4.35;;;;;;;;;;6260066;28;20051;-58
2022/05/17 02:10:14;;;;;;;13.18;5.63;;;;;;;;;;6261222;28;20052;-60
2022/05/17 02:13:17;;;;;;;7.90;4.40;;;;;;;;;;6264983;28;20139;-55
2022/05/17 02:16:18;;;;;;;10.57;4.78;;;;;;;;;;6260918;28;20052;-55
2022/05/17 02:19:20;;;;;;;7.22;4.53;;;;;;;;;;6258109;28;20464;-58
2022/05/17 02:22:22;;;;;;;;;;;;;;;;;;6262835;28;20546;-49
2022/05/17 02:25:22;;;;;;;7.55;4.65;;;;;;;;;;6261615;28;19921;-55
2022/05/17 02:28:23;;;;;;;9.50;4.45;;;;;;;;;;6262181;28;20072;-56
2022/05/17 02:31:24;;;;;;;9.73;4.55;;;;;;;;;;6252482;28;20045;-55
2022/05/17 02:34:25;;;;;;;10.75;4.65;;;;;;;;;;6260145;28;20056;-59
2022/05/17 02:37:26;;;;;;;9.32;4.43;;;;;;;;;;6255766;28;20056;-58
2022/05/17 02:40:26;;;;;;;8.02;4.35;;;;;;;;;;6258901;28;20072;-56
2022/05/17 02:43:27;;;;;;;8.10;4.45;;;;;;;;;;6261272;28;20048;-49
2022/05/17 02:46:31;;;;;;;9.73;4.97;;;;;;;;;;6263407;28;20041;-61
2022/05/17 02:49:32;;;;;;;9.80;4.60;;;;;;;;;;6260073;28;20155;-56
2022/05/17 02:52:33;;;;;;;7.70;4.22;;;;;;;;;;6262494;28;20045;-61
2022/05/17 02:55:33;;;;;;;7.60;4.45;;;;;;;;;;6261916;28;20136;-60
2022/05/17 02:58:34;;;;;;;11.23;4.70;;;;;;;;;;6245846;28;20468;-55
2022/05/17 03:01:35;;;;;;;9.60;4.95;;;;;;;;;;6259791;28;20525;-50
2022/05/17 03:04:36;;;;;;;9.13;4.40;;;;;;;;;;6259688;28;20041;-60
2022/05/17 03:07:37;;;;;;;10.43;4.28;;;;;;;;;;6258570;28;20128;-61
2022/05/17 03:10:37;;;;;;;7.70;4.37;;;;;;;;;;6261412;28;20057;-56
2022/05/17 03:13:38;;;;;;;10.40;4.60;;;;;;;;;;6262434;28;20095;-57
2022/05/17 03:16:39;;;;;;;9.27;4.30;;;;;;;;;;6262925;28;20037;-61
2022/05/17 03:19:41;;;;;;;8.88;4.65;;;;;;;;;;6259845;28;20041;-59
2022/05/17 03:22:41;;;;;;;8.20;4.22;;;;;;;;;;6257593;28;20076;-55
2022/05/17 03:25:43;;;;;;;8.90;4.68;;;;;;;;;;6258007;28;20052;-62
2022/05/17 03:28:44;;;;;;;8.70;4.40;;;;;;;;;;6263302;28;20048;-51
2022/05/17 03:31:44;;;;;;;8.35;4.47;;;;;;;;;;6258430;28;20047;-54
2022/05/17 03:34:45;;;;;;;8.50;4.45;;;;;;;;;;6261007;28;20049;-55
2022/05/17 03:37:45;;;;;;;11.15;5.90;;;;;;;;;;6257339;28;20059;-60
2022/05/17 03:40:46;;;;;;;11.35;4.72;;;;;;;;;;6257194;28;20052;-60
2022/05/17 03:43:47;;;;;;;10.20;5.13;;;;;;;;;;6256682;28;20143;-57
2022/05/17 03:46:48;;;;;;;8.13;4.50;;;;;;;;;;6255695;28;20071;-54
2022/05/17 03:49:48;;;;;;;7.97;4.22;;;;;;;;;;6261873;28;20057;-60
2022/05/17 03:52:49;;;;;;;9.80;4.38;;;;;;;;;;6260617;28;20044;-61
2022/05/17 03:55:50;;;;;;;9.02;4.28;;;;;;;;;;6262335;28;20135;-59
2022/05/17 03:58:50;;;;;;;10.15;4.68;;;;;;;;;;6260012;28;20473;-58
2022/05/17 04:01:51;;;;;;;11.63;4.93;;;;;;;;;;6260220;28;20041;-49
2022/05/17 04:04:55;;;;;;;10.50;4.50;;;;;;;;;;6258875;28;20045;-55
2022/05/17 04:07:56;;;;;;;7.93;4.40;;;;;;;;;;6263246;28;20057;-57
2022/05/17 04:10:57;;;;;;;8.82;4.55;;;;;;;;;;6261353;28;20538;-60
2022/05/17 04:13:58;;;;;;;9.98;4.60;;;;;;;;;;6262875;28;20111;-53
2022/05/17 04:16:58;;;;;;;8.15;4.40;;;;;;;;;;6261726;28;20049;-60
2022/05/17 04:20:00;;;;;;;8.55;4.50;;;;;;;;;;6256990;28;20824;-54
2022/05/17 04:23:01;;;;;;;7.22;4.20;;;;;;;;;;6258812;28;20049;-60
2022/05/17 04:26:01;;;;;;;12.10;4.40;;;;;;;;;;6258869;28;20148;-51
2022/05/17 04:29:03;;;;;;;11.32;4.90;;;;;;;;;;6260976;28;20480;-56
2022/05/17 04:32:05;;;;;;;8.68;4.38;;;;;;;;;;6256326;28;20049;-51
2022/05/17 04:35:06;;;;;;;10.40;4.72;;;;;;;;;;6258932;28;20041;-58
2022/05/17 04:38:07;;;;;;;6.70;4.47;;;;;;;;;;6255599;28;20484;-57
2022/05/17 04:41:07;;;;;;;9.73;5.00;;;;;;;;;;6257576;28;20462;-54
2022/05/17 04:44:08;;;;;;;12.10;4.65;;;;;;;;;;6260422;28;20084;-58
2022/05/17 04:47:12;;;;;;;10.15;4.53;;;;;;;;;;6256970;28;20045;-54
2022/05/17 04:50:13;;;;;;;13.48;4.63;;;;;;;;;;6262126;28;20056;-57
2022/05/17 04:53:14;;;;;;;10.45;4.93;;;;;;;;;;6257324;28;20045;-58
2022/05/17 04:56:15;;;;;;;9.77;5.38;;;;;;;;;;6258658;28;20132;-56
2022/05/17 04:59:15;;;;;;;10.93;5.22;;;;;;;;;;6258691;28;20049;-54
2022/05/17 05:02:16;;;;;;;15.60;5.47;;;;;;;;;;6264354;28;20567;-61
2022/05/17 05:05:17;;;;;;;15.73;5.53;;;;;;;;;;6268314;28;20052;-59
2022/05/17 05:08:18;;;;;;;10.93;4.68;;;;;;;;;;6263460;28;20102;-61
2022/05/17 05:11:19;;;;;;;14.25;5.03;;;;;;;;;;6257253;28;20075;-56
2022/05/17 05:14:19;;;;;;;11.50;4.95;;;;;;;;;;6263435;28;20080;-60
2022/05/17 05:17:20;;;;;;;13.63;5.00;;;;;;;;;;6262241;28;20729;-51
2022/05/17 05:20:20;;;;;;;11.20;5.07;;;;;;;;;;6261053;28;20451;-58
2022/05/17 05:23:21;;;;;;;9.75;4.80;;;;;;;;;;6267768;28;20477;-60
2022/05/17 05:26:22;;;;;;;12.95;4.78;;;;;;;;;;6259096;28;20516;-56
2022/05/17 05:29:22;;;;;;;11.73;4.72;;;;;;;;;;6263232;28;20488;-51
2022/05/17 05:32:23;;;;;;;10.90;5.20;;;;;;;;;;6257899;28;20537;-57
2022/05/17 05:35:25;;;;;;;10.18;5.43;;;;;;;;;;6261798;28;20542;-57
2022/05/17 05:38:25;;;;;;;;;;;;;;;;;;6267145;28;20053;-61
2022/05/17 05:41:26;;;;;;;9.88;4.60;;;;;;;;;;6259532;28;19966;-56
2022/05/17 05:44:27;;;;;;;14.52;5.10;;;;;;;;;;6262237;28;20135;-56
2022/05/17 05:47:27;;;;;;;12.20;4.63;;;;;;;;;;6249267;28;20557;-54
2022/05/17 05:50:28;;;;;;;8.45;4.60;;;;;;;;;;6247667;28;20053;-59
2022/05/17 05:53:29;;;;;;;8.27;4.30;;;;;;;;;;6263725;28;20049;-57
2022/05/17 05:56:29;;;;;;;10.35;4.57;;;;;;;;;;6261388;28;20041;-56
2022/05/17 05:59:30;;;;;;;10.52;4.68;;;;;;;;;;6259800;28;20045;-52
2022/05/17 06:02:31;;;;;;;13.38;5.18;;;;;;;;;;6257849;28;20442;-50
2022/05/17 06:05:32;;;;;;;10.00;5.00;;;;;;;;;;6259276;28;20427;-57
2022/05/17 06:08:34;;;;;;;8.77;4.28;;;;;;;;;;6249646;28;20051;-56
2022/05/17 06:11:35;;;;;;;10.30;4.43;;;;;;;;;;6247345;28;20041;-52
2022/05/17 06:14:35;;;;;;;12.80;4.85;;;;;;;;;;6249433;28;20186;-59
2022/05/17 06:17:37;;;;;;;11.50;4.80;;;;;;;;;;6252438;28;20794;-58
2022/05/17 06:20:39;;;;;;;11.15;4.70;;;;;;;;;;6252023;28;20058;-52
2022/05/17 06:23:39;;;;;;;10.23;4.90;;;;;;;;;;6259683;28;20054;-53
2022/05/17 06:26:40;;;;;;;8.70;4.75;;;;;;;;;;6249182;28;20561;-51
2022/05/17 06:29:40;;;;;;;9.40;4.65;;;;;;;;;;6248542;28;20045;-56
2022/05/17 06:32:42;;;;;;;10.70;4.60;;;;;;;;;;6249610;28;20124;-50
2022/05/17 06:35:45;;;;;;;9.13;4.60;;;;;;;;;;6258530;28;20049;-56
2022/05/17 06:38:45;;;;;;;11.57;4.65;;;;;;;;;;6257085;28;20416;-53
2022/05/17 06:41:47;;;;;;;11.70;4.50;;;;;;;;;;6261184;28;20044;-55
2022/05/17 06:44:48;;;;;;;10.65;5.00;;;;;;;;;;6256531;28;20056;-57
2022/05/17 06:47:48;;;;;;;8.27;4.50;;;;;;;;;;6259257;28;20846;-51
2022/05/17 06:50:49;;;;;;;9.77;4.40;;;;;;;;;;6259815;28;20411;-54
2022/05/17 06:53:49;;;;;;;18.85;6.00;;;;;;;;;;6254713;28;20090;-51
2022/05/17 06:56:50;;;;;;;14.93;5.00;;;;;;;;;;6262674;28;20132;-51
2022/05/17 06:59:51;;;;;;;11.23;4.60;;;;;;;;;;6258926;28;20072;-50
2022/05/17 07:02:51;;;;;;;9.55;5.10;;;;;;;;;;6250252;28;20449;-51
2022/05/17 07:05:52;;;;;;;8.48;4.70;;;;;;;;;;6250460;28;20041;-52
2022/05/17 07:08:53;;;;;;;10.80;4.60;;;;;;;;;;6264050;28;20052;-51
2022/05/17 07:15:14;;;;;;;11.52;4.45;;;;;;;;;;6254917;28;20049;-50
2022/05/17 07:18:21;;;;;;;13.35;4.47;;;;;;;;;;6257800;28;20055;-54
2022/05/17 07:21:22;;;;;;;12.05;4.07;;;;;;;;;;6257372;28;20076;-51
2022/05/17 07:24:23;;;;;;;5.97;3.90;;;;;;;;;;6258305;28;20139;-50
2022/05/17 07:27:24;;;;;;;10.02;4.13;;;;;;;;;;6261705;28;20792;-51
2022/05/17 07:30:25;;;;;;;9.73;4.32;;;;;;;;;;6259825;28;20055;-52
2022/05/17 07:33:25;;;;;;;12.57;4.40;;;;;;;;;;6254157;28;20040;-57
2022/05/17 07:36:26;;;;;;;10.55;4.28;;;;;;;;;;6246639;28;20168;-51
2022/05/17 07:39:26;;;;;;;11.17;4.60;;;;;;;;;;6244487;28;20136;-51
2022/05/17 07:42:27;;;;;;;8.03;4.13;;;;;;;;;;6242989;28;20078;-57
2022/05/17 07:45:28;;;;;;;10.73;4.23;;;;;;;;;;6244876;28;20055;-50
2022/05/17 07:48:28;;;;;;;10.57;4.30;;;;;;;;;;6242875;28;20140;-50
2022/05/17 07:51:29;;;;;;;8.68;4.00;;;;;;;;;;6246087;28;20493;-54
2022/05/17 07:54:30;;;;;;;8.73;3.87;;;;;;;;;;6249628;28;20550;-59
2022/05/17 07:57:30;;;;;;;9.18;4.30;;;;;;;;;;6264227;28;20049;-57
2022/05/17 08:00:32;;;;;;;7.32;3.85;;;;;;;;;;6257457;28;20175;-51
2022/05/17 08:03:34;;;;;;;11.57;4.30;;;;;;;;;;6261039;28;20076;-51
2022/05/17 08:06:35;;;;;;;9.80;4.10;;;;;;;;;;6258314;28;20102;-55
2022/05/17 08:09:36;;;;;;;7.40;3.90;;;;;;;;;;6254985;28;20135;-55
2022/05/17 08:12:36;;;;;;;12.07;4.10;;;;;;;;;;6258192;28;20140;-52
2022/05/17 08:15:37;;;;;;;10.23;4.03;;;;;;;;;;6255090;28;20254;-51
2022/05/17 08:18:38;;;;;;;16.53;4.23;;;;;;;;;;6255164;28;20087;-59
2022/05/17 08:21:38;;;;;;;7.47;4.40;;;;;;;;;;6257030;28;20476;-50
2022/05/17 08:28:03;;;;;;;12.35;4.10;;;;;;;;;;6255184;28;20295;-51
2022/05/17 08:31:03;;;;;;;15.02;4.70;;;;;;;;;;6254594;28;20087;-55
2022/05/17 08:34:04;;;;;;;9.43;4.30;;;;;;;;;;6256316;28;20396;-57
2022/05/17 08:37:05;;;;;;;8.23;3.90;;;;;;;;;;6260094;28;21061;-51
2022/05/17 08:40:07;;;;;;;9.70;4.40;;;;;;;;;;6259233;28;20051;-50
2022/05/17 08:43:26;;;;;;;8.20;4.28;;;;;;;;;;6263789;28;20081;-51
2022/05/17 08:46:48;;;;;;;10.07;4.82;;;;;;;;;;6258908;28;20137;-52
2022/05/17 08:49:56;;;;;;;12.48;4.22;;;;;;;;;;6267735;28;20133;-55
2022/05/17 08:52:58;;;;;;;10.75;4.55;;;;;;;;;;6259398;28;20139;-51
2022/05/17 08:55:59;;;;;;;13.98;4.57;;;;;;;;;;6263052;28;20136;-52
2022/05/17 08:59:01;;;;;;;10.80;5.40;;;;;;;;;;6253750;28;20072;-56
2022/05/17 09:02:12;;;;;;;8.98;4.20;;;;;;;;;;6261827;28;20496;-57
2022/05/17 09:05:30;;;;;;;11.45;4.78;;;;;;;;;;6261884;28;20041;-53
2022/05/17 09:08:46;;;;;;;8.85;4.28;;;;;;;;;;6257799;28;20080;-51
2022/05/17 09:11:54;;;;;;;13.98;5.13;;;;;;;;;;6266249;28;20046;-51
2022/05/17 09:14:58;;;;;;;9.85;4.50;;;;;;;;;;6261725;28;20053;-56
2022/05/17 09:18:03;;;;;;;10.82;4.82;;;;;;;;;;6264706;28;20531;-54
2022/05/17 09:21:04;;;;;;;8.52;4.35;;;;;;;;;;6255563;28;20080;-52
2022/05/17 09:24:14;;;;;;;9.00;4.13;;;;;;;;;;6265392;28;20052;-52
2022/05/17 09:27:25;;;;;;;9.73;4.20;;;;;;;;;;6251683;28;20107;-50
2022/05/17 09:30:31;;;;;;;8.85;4.28;;;;;;;;;;6266465;28;20057;-53
2022/05/17 09:33:32;;;;;;;11.73;4.55;;;;;;;;;;6262730;28;20048;-56
2022/05/17 09:36:43;;;;;;;11.83;4.60;;;;;;;;;;6268069;28;20116;-58
2022/05/17 09:39:49;;;;;;;11.63;4.65;;;;;;;;;;6261149;28;20091;-56
2022/05/17 09:43:01;;;;;;;9.43;4.00;;;;;;;;;;6260929;28;20060;-50
2022/05/17 09:46:13;;;;;;;9.88;3.92;;;;;;;;;;6255128;28;20099;-57
2022/05/17 09:52:45;;;;;;;8.80;3.90;;;;;;;;;;6254602;28;20044;-50
2022/05/17 09:55:54;;;;;;;8.70;3.92;;;;;;;;;;6255546;28;20520;-50
2022/05/17 09:58:57;;;;;;;14.65;4.60;;;;;;;;;;6256395;28;20053;-52
2022/05/17 10:01:57;;;;;;;11.20;4.22;;;;;;;;;;6254107;28;20443;-54
2022/05/17 10:05:19;;;;;;;12.67;4.33;;;;;;;;;;6244881;28;20041;-50
2022/05/17 10:08:19;;;;;;;7.15;3.80;;;;;;;;;;6251549;28;20055;-51
2022/05/17 10:11:25;;;;;;;7.77;4.10;;;;;;;;;;6259539;28;20053;-52
2022/05/17 10:14:33;;;;;;;9.95;3.80;;;;;;;;;;6260215;28;20060;-54
2022/05/17 10:17:57;;;;;;;10.32;3.80;;;;;;;;;;6253720;28;20087;-52
2022/05/17 10:21:08;;;;;;;21.50;4.22;;;;;;;;;;6252038;28;20126;-54
2022/05/17 10:24:29;;;;;;;8.95;3.60;;;;;;;;;;6257099;28;20079;-54
2022/05/17 10:27:40;;;;;;;12.50;3.83;;;;;;;;;;6253215;28;20538;-51
2022/05/17 10:30:52;;;;;;;6.95;3.85;;;;;;;;;;6253583;28;20076;-55
2022/05/17 10:34:03;;;;;;;10.52;4.07;;;;;;;;;;6257239;28;20143;-53
2022/05/17 10:37:09;;;;;;;8.13;3.80;;;;;;;;;;6260014;28;20408;-51
2022/05/17 10:40:14;;;;;;;8.88;3.42;;;;;;;;;;6260147;28;20052;-51
2022/05/17 10:43:23;;;;;;;8.57;3.78;;;;;;;;;;6260309;28;20056;-55
2022/05/17 10:46:30;;;;;;;8.45;4.00;;;;;;;;;;6263919;28;20045;-54
2022/05/17 10:49:45;;;;;;;12.23;3.95;;;;;;;;;;6260008;28;20087;-58
2022/05/17 10:53:10;;;;;;;8.27;4.25;;;;;;;;;;6259626;28;20037;-51
2022/05/17 10:56:44;;;;;;;8.77;3.92;;;;;;;;;;6258890;28;20088;-51
2022/05/17 11:00:09;;;;;;;9.75;3.85;;;;;;;;;;6258098;28;20106;-51
2022/05/17 11:03:22;;;;;;;11.88;4.22;;;;;;;;;;6264109;28;20053;-54
2022/05/17 11:06:44;;;;;;;10.52;4.20;;;;;;;;;;6256682;28;20056;-51
2022/05/17 11:10:22;;;;;;;6.05;3.75;;;;;;;;;;6253813;28;20140;-51
2022/05/17 11:13:32;;;;;;;8.00;3.70;;;;;;;;;;6243661;28;20045;-52
2022/05/17 11:16:40;;;;;;;8.13;3.90;;;;;;;;;;6243179;28;20045;-54
2022/05/17 11:19:49;;;;;;;7.65;3.80;;;;;;;;;;6256421;28;20136;-55
2022/05/17 11:23:08;;;;;;;12.30;3.72;;;;;;;;;;6260808;28;20136;-50
2022/05/17 11:27:03;;;;;;;12.00;4.10;;;;;;;;;;6257444;28;20081;-52
2022/05/17 11:30:08;;;;;;;9.18;3.88;;;;;;;;;;6260432;28;20044;-53
2022/05/17 11:33:22;;;;;;;9.57;3.65;;;;;;;;;;6259190;28;20098;-50
2022/05/17 11:36:31;;;;;;;9.80;3.80;;;;;;;;;;6247110;28;20079;-56
2022/05/17 11:39:32;;;;;;;7.50;3.67;;;;;;;;;;6244170;28;20045;-53
2022/05/17 11:43:40;;;;;;;11.90;4.30;;;;;;;;;;6264858;28;20412;-50
2022/05/17 11:46:03;;;;;;;10.68;3.95;;;;;;;;;;6259075;28;20069;-51
2022/05/17 11:49:13;;;;;;;9.77;4.10;;;;;;;;;;6256676;28;20381;-53
2022/05/17 11:52:22;;;;;;;9.50;3.88;;;;;;;;;;6258279;28;20045;-52
2022/05/17 11:55:28;;;;;;;9.85;4.13;;;;;;;;;;6255860;28;20599;-54
2022/05/17 11:58:29;;;;;;;10.93;4.03;;;;;;;;;;6257773;28;20119;-53
2022/05/17 12:01:29;;;;;;;8.25;3.90;;;;;;;;;;6257924;28;20548;-50
2022/05/17 12:04:30;;;;;;;9.90;4.20;;;;;;;;;;6261830;28;20048;-56
2022/05/17 12:07:31;;;;;;;8.90;4.17;;;;;;;;;;6260410;28;20041;-54
2022/05/17 12:10:32;;;;;;;8.18;4.03;;;;;;;;;;6256744;28;20052;-52
2022/05/17 12:13:45;;;;;;;12.73;4.23;;;;;;;;;;6260296;28;20392;-51
2022/05/17 12:16:48;;;;;;;11.10;5.18;;;;;;;;;;6256414;28;20053;-54
2022/05/17 12:20:04;;;;;;;10.60;5.00;;;;;;;;;;6261448;28;20084;-54
2022/05/17 12:23:17;;;;;;;10.18;5.10;;;;;;;;;;6266782;28;20052;-51
2022/05/17 12:26:28;;;;;;;10.73;5.30;;;;;;;;;;6266381;28;20053;-58
2022/05/17 12:32:49;;;;;;;8.68;5.35;;;;;;;;;;6265151;28;20049;-60
2022/05/17 12:35:52;;;;;;;12.67;5.33;;;;;;;;;;6261331;28;20176;-54
2022/05/17 12:45:44;;;;;;;7.22;3.75;;;;;;;;;;6255955;28;20092;-53
2022/05/17 12:48:47;;;;;;;9.35;3.72;;;;;;;;;;6263793;28;20140;-51
2022/05/17 12:51:58;;;;;;;5.65;3.28;;;;;;;;;;6263086;28;20067;-52
2022/05/17 12:55:21;;;;;;;12.18;3.20;;;;;;;;;;6264296;28;20456;-50
2022/05/17 12:58:22;;;;;;;11.27;3.63;;;;;;;;;;6255263;28;20504;-55
2022/05/17 13:01:40;;;;;;;25.43;7.30;;;;;;;;;;6262938;28;20423;-51
2022/05/17 13:04:41;;;;;;;7.80;2.80;;;;;;;;;;6262926;28;20045;-50
2022/05/17 13:07:41;;;;;;;10.17;3.00;;;;;;;;;;6260575;28;20468;-57
2022/05/17 13:10:55;;;;;;;6.67;3.00;;;;;;;;;;6263830;28;20132;-52
2022/05/17 13:13:59;;;;;;;7.10;3.20;;;;;;;;;;6260180;28;20053;-51
2022/05/17 13:17:11;;;;;;;7.93;3.20;;;;;;;;;;6265164;28;20339;-54
2022/05/17 13:20:19;;;;;;;8.52;2.65;;;;;;;;;;6264378;28;20056;-51
2022/05/17 13:23:25;;;;;;;6.75;2.55;;;;;;;;;;6261100;28;20122;-52
2022/05/17 13:26:29;;;;;;;5.82;2.97;;;;;;;;;;6265015;28;20068;-53
2022/05/17 13:29:37;;;;;;;8.15;3.22;;;;;;;;;;6259688;28;20095;-50
2022/05/17 13:32:43;;;;;;;9.77;3.63;;;;;;;;;;6260532;28;20080;-50
2022/05/17 13:35:44;;;;;;;13.57;3.80;;;;;;;;;;6260156;28;20487;-52
2022/05/17 13:38:46;;;;;;;14.67;4.80;;;;;;;;;;6259678;28;20057;-54
2022/05/17 13:41:47;;;;;;;;;;;;;;;;;;6265039;28;20052;-60
2022/05/17 13:45:04;;;;;;;17.30;7.90;;;;;;;;;;6260736;28;20409;-51
2022/05/17 13:48:05;;;;;;;22.52;7.70;;;;;;;;;;6251663;28;20098;-58
2022/05/17 13:51:08;;;;;;;19.50;7.43;;;;;;;;;;6249896;28;20049;-57
2022/05/17 13:54:33;;;;;;;17.15;6.90;;;;;;;;;;6246153;28;20076;-52
2022/05/17 13:57:39;;;;;;;12.15;6.40;;;;;;;;;;6251641;28;20057;-51
2022/05/17 14:01:06;;;;;;;14.10;6.10;;;;;;;;;;6257087;28;20057;-56
2022/05/17 14:04:12;;;;;;;7.47;3.35;;;;;;;;;;6241344;28;21569;-51
2022/05/17 14:07:32;;;;;;;6.47;2.92;;;;;;;;;;6249748;28;20500;-51
2022/05/17 14:13:55;;;;;;;6.07;2.90;;;;;;;;;;6252514;28;20053;-57
2022/05/17 14:17:02;;;;;;;6.53;2.97;;;;;;;;;;6256844;28;20076;-56
2022/05/17 14:20:03;;;;;;;6.25;3.13;;;;;;;;;;6256423;28;20092;-54
2022/05/17 14:23:03;;;;;;;4.83;2.20;;;;;;;;;;6255637;28;20488;-50
2022/05/17 14:26:05;;;;;;;5.07;2.73;;;;;;;;;;6255079;28;20057;-58
2022/05/17 14:29:06;;;;;;;4.78;2.50;;;;;;;;;;6256395;28;20811;-54
2022/05/17 14:32:08;;;;;;;6.40;2.37;;;;;;;;;;6256095;28;20071;-51
2022/05/17 14:35:08;;;;;;;;;;;;;;;;;;6252048;28;20503;-52
2022/05/17 14:38:09;;;;;;;9.02;3.50;;;;;;;;;;6256926;28;19940;-51
2022/05/17 14:41:12;;;;;;;9.73;3.20;;;;;;;;;;6255474;28;20526;-55
2022/05/17 14:44:13;;;;;;;8.13;2.97;;;;;;;;;;6254422;28;20048;-51
2022/05/17 14:47:23;;;;;;;5.73;2.47;;;;;;;;;;6255617;28;20113;-57
2022/05/17 14:50:24;;;;;;;8.00;2.97;;;;;;;;;;6257388;28;20053;-57
2022/05/17 14:53:24;;;;;;;8.47;2.87;;;;;;;;;;6254380;28;20056;-50
2022/05/17 14:56:25;;;;;;;8.53;3.57;;;;;;;;;;6255719;28;20049;-55
2022/05/17 14:59:25;;;;;;;7.37;3.00;;;;;;;;;;6256571;28;20151;-52
2022/05/17 15:02:26;;;;;;;6.10;2.87;;;;;;;;;;6257637;28;20867;-58
2022/05/17 15:05:28;;;;;;;8.10;3.08;;;;;;;;;;6254091;28;20098;-57
2022/05/17 15:08:30;;;;;;;12.13;3.53;;;;;;;;;;6256162;28;20077;-54
2022/05/17 15:11:30;;;;;;;7.93;3.20;;;;;;;;;;6253701;28;20060;-59
2022/05/17 15:14:31;;;;;;;8.57;2.57;;;;;;;;;;6250467;28;20049;-56
2022/05/17 15:17:33;;;;;;;8.20;3.00;;;;;;;;;;6253341;28;20053;-56
2022/05/17 15:20:34;;;;;;;;;;;;;;;;;;6250158;28;20140;-52
2022/05/17 15:23:37;;;;;;;10.80;3.70;;;;;;;;;;6251333;28;19979;-49
2022/05/17 15:26:38;;;;;;;10.05;3.17;;;;;;;;;;6251032;28;20809;-50
2022/05/17 15:29:39;;;;;;;8.17;2.60;;;;;;;;;;6255856;28;20621;-50
2022/05/17 15:32:41;;;;;;;7.75;2.70;;;;;;;;;;6256222;28;20048;-50
2022/05/17 15:35:42;;;;;;;8.17;2.40;;;;;;;;;;6253170;28;20164;-54
2022/05/17 15:38:43;;;;;;;7.33;2.67;;;;;;;;;;6255963;28;20107;-55
2022/05/17 15:41:44;;;;;;;9.67;2.63;;;;;;;;;;6253993;28;20053;-51
2022/05/17 15:44:45;;;;;;;7.30;2.45;;;;;;;;;;6251983;28;20221;-57
2022/05/17 15:54:27;;;;;;;4.85;2.35;;;;;;;;;;6252775;28;20048;-53
2022/05/17 15:57:27;;;;;;;5.65;2.15;;;;;;;;;;6255042;28;20481;-56
2022/05/17 16:00:28;;;;;;;6.73;2.43;;;;;;;;;;6252877;28;20554;-50
2022/05/17 16:03:38;;;;;;;5.68;2.53;;;;;;;;;;6252991;28;20155;-53
2022/05/17 16:06:38;;;;;;;5.68;2.22;;;;;;;;;;6254797;28;20049;-51
2022/05/17 16:09:39;;;;;;;4.63;2.45;;;;;;;;;;6254757;28;20067;-52
2022/05/17 16:12:40;;;;;;;5.97;2.53;;;;;;;;;;6254135;28;20049;-55
2022/05/17 16:15:42;;;;;;;7.50;2.63;;;;;;;;;;6253406;28;20543;-53
2022/05/17 16:18:47;;;;;;;5.78;2.58;;;;;;;;;;6253344;28;20400;-55
2022/05/17 16:21:54;;;;;;;6.82;2.80;;;;;;;;;;6253778;28;20060;-56
2022/05/17 16:24:54;;;;;;;10.77;2.70;;;;;;;;;;6251736;28;20504;-54
2022/05/17 16:27:55;;;;;;;5.43;2.60;;;;;;;;;;6252492;28;20060;-55
2022/05/17 16:30:56;;;;;;;7.22;2.70;;;;;;;;;;6253712;28;20503;-53
2022/05/17 16:33:59;;;;;;;7.28;2.60;;;;;;;;;;6250891;28;20503;-50
2022/05/17 16:37:00;;;;;;;9.02;2.60;;;;;;;;;;6255107;28;20622;-51
2022/05/17 16:40:00;;;;;;;7.97;2.92;;;;;;;;;;6253679;28;20052;-57
2022/05/17 16:43:02;;;;;;;5.22;2.58;;;;;;;;;;6253064;28;20060;-54
2022/05/17 16:46:02;;;;;;;7.18;3.03;;;;;;;;;;6253451;28;20061;-54
2022/05/17 16:49:07;;;;;;;8.00;3.22;;;;;;;;;;6254044;28;20511;-57
2022/05/17 16:52:11;;;;;;;7.10;2.78;;;;;;;;;;6254439;28;20146;-54
2022/05/17 16:55:11;;;;;;;6.57;2.70;;;;;;;;;;6253885;28;20888;-54
2022/05/17 16:58:12;;;;;;;8.05;2.85;;;;;;;;;;6258071;28;20057;-52
2022/05/17 17:01:15;;;;;;;7.10;3.10;;;;;;;;;;6259022;28;20098;-53
2022/05/17 17:04:16;;;;;;;7.30;3.10;;;;;;;;;;6255838;28;20048;-59
2022/05/17 17:07:18;;;;;;;8.48;3.00;;;;;;;;;;6257815;28;20132;-53
2022/05/17 17:10:23;;;;;;;9.07;3.20;;;;;;;;;;6257465;28;20511;-54
2022/05/17 17:13:24;;;;;;;9.15;2.92;;;;;;;;;;6254053;28;20122;-51
2022/05/17 17:16:25;;;;;;;5.78;3.30;;;;;;;;;;6258668;28;20435;-53
2022/05/17 17:19:25;;;;;;;9.13;2.97;;;;;;;;;;6257520;28;20051;-53
2022/05/17 17:22:26;;;;;;;6.50;3.00;;;;;;;;;;6258265;28;20056;-57
2022/05/17 17:25:27;;;;;;;8.27;2.80;;;;;;;;;;6256562;28;20082;-55
2022/05/17 17:28:30;;;;;;;8.63;3.15;;;;;;;;;;6257625;28;20080;-51
2022/05/17 17:31:32;;;;;;;10.82;4.55;;;;;;;;;;6258124;28;20955;-50
2022/05/17 17:37:52;;;;;;;9.02;3.40;;;;;;;;;;6259055;28;20016;-60
2022/05/17 17:40:53;;;;;;;5.75;2.83;;;;;;;;;;6257858;28;20072;-58
2022/05/17 17:43:56;;;;;;;12.15;4.82;;;;;;;;;;6256051;28;20109;-56
2022/05/17 17:46:59;;;;;;;8.43;4.13;;;;;;;;;;6256357;28;20519;-53
2022/05/17 17:50:00;;;;;;;10.90;5.75;;;;;;;;;;6255369;28;20064;-57
2022/05/17 17:53:01;;;;;;;7.32;3.50;;;;;;;;;;6257742;28;20045;-58
2022/05/17 17:56:02;;;;;;;24.38;11.35;;;;;;;;;;6253120;28;20597;-57
2022/05/17 17:59:04;;;;;;;16.10;8.23;;;;;;;;;;6257475;28;20084;-58
2022/05/17 18:02:05;;;;;;;12.23;6.32;;;;;;;;;;6257353;28;20065;-57
2022/05/17 18:05:07;;;;;;;11.93;6.47;;;;;;;;;;6254807;28;20047;-58
2022/05/17 18:08:09;;;;;;;13.85;7.18;;;;;;;;;;6257397;28;20080;-58
2022/05/17 18:11:11;;;;;;;12.18;4.80;;;;;;;;;;6256072;28;20053;-59
2022/05/17 18:14:15;;;;;;;13.02;5.28;;;;;;;;;;6256108;28;20103;-60
2022/05/17 18:17:15;;;;;;;9.30;3.63;;;;;;;;;;6256566;28;20048;-56
2022/05/17 18:20:20;;;;;;;6.35;3.42;;;;;;;;;;6256520;28;20072;-53
2022/05/17 18:23:21;;;;;;;7.05;3.35;;;;;;;;;;6255275;28;20072;-55
2022/05/17 18:26:31;;;;;;;7.63;3.75;;;;;;;;;;6253972;28;20069;-51
2022/05/17 18:29:38;;;;;;;11.63;5.78;;;;;;;;;;6253137;28;20074;-50
2022/05/17 18:32:44;;;;;;;13.55;6.20;;;;;;;;;;6253079;28;20060;-62
2022/05/17 18:35:45;;;;;;;19.77;8.32;;;;;;;;;;6254358;28;20432;-50
2022/05/17 18:38:45;;;;;;;22.70;8.05;;;;;;;;;;6254539;28;20131;-54
2022/05/17 18:41:46;;;;;;;19.98;7.75;;;;;;;;;;6239657;28;20041;-50
2022/05/17 18:44:49;;;;;;;16.83;7.50;;;;;;;;;;6251462;28;20575;-51
2022/05/17 18:48:14;;;;;;;15.32;7.70;;;;;;;;;;6245508;28;20107;-50
2022/05/17 18:51:16;;;;;;;11.43;5.10;;;;;;;;;;6241062;28;20049;-50
2022/05/17 18:54:17;;;;;;;16.73;6.47;;;;;;;;;;6241682;28;20535;-50